Latest Weather Observations for Cape Grim

IDT60801

Issued at 5:01 pm EDT Sunday 21 December 2014 (issued every 30 minutes, with the page automatically refreshed every 10 minutes)

About weather observations | Map of weather stations | Latest weather observations for TAS | Other Formats
Station Details ID: 091331 Name: CAPE GRIM Lat: -40.68 Lon: 144.69 Height: 86.0 m
Data from the previous 72 hours. | See also: Recent months at Cape Grim
Date/Time
EDT
Temp
°C
App
Temp
°C
Dew
Point
Rel
Hum
%
Delta-T
°C
Wind Press
QNH
hPa
Press
MSL
hPa
Rain
since 9 am
mm
Dir
 
Spd
km/h
Gust
km/h
Spd
kts
Gust
kts
21/05:00pm 16.6 14.9 12.6 77 2.2 WSW 13 20 7 11 1014.4 1014.4 0.0
21/04:30pm 17.8 16.2 12.9 73 2.8 W 13 17 7 9 1014.4 1014.4 0.0
21/04:00pm 17.4 15.8 12.7 74 2.6 W 13 19 7 10 1014.5 1014.5 0.0
21/03:30pm 18.0 15.6 12.7 71 3.0 W 17 22 9 12 1014.4 1014.4 0.0
21/03:00pm 17.7 15.2 12.4 71 2.9 WNW 17 24 9 13 1014.4 1014.4 0.0
21/02:30pm 18.1 15.1 12.5 70 3.1 NNW 20 26 11 14 1013.8 1013.8 0.0
21/02:00pm 17.8 14.7 13.3 75 2.5 N 22 28 12 15 1014.0 1014.0 0.0
21/01:40pm 17.5 14.3 13.0 75 2.5 NNW 22 28 12 15 1014.1 1014.1 0.0
21/01:30pm 16.9 13.1 12.4 75 2.5 N 24 30 13 16 1014.2 1014.2 0.0
21/01:00pm 17.0 13.7 12.9 77 2.3 N 22 30 12 16 1014.3 1014.3 0.0
21/12:50pm 16.8 14.0 12.5 76 2.4 N 19 22 10 12 1014.4 1014.4 0.0
21/12:30pm 17.4 15.7 13.5 78 2.2 N 15 20 8 11 1015.0 1015.0 0.0
21/12:29pm 17.6 16.4 13.9 79 2.1 N 13 20 7 11 1015.0 1015.0 0.0
21/12:00pm 16.0 14.1 12.9 82 1.7 WNW 15 20 8 11 1015.8 1015.8 0.0
21/11:51am 16.0 13.6 12.6 80 1.9 W 17 24 9 13 1016.1 1016.1 0.0
21/11:31am 16.4 13.9 12.2 76 2.3 WNW 17 20 9 11 1015.9 1015.9 0.0
21/11:30am 16.3 13.7 12.1 76 2.3 WNW 17 20 9 11 1015.9 1015.9 0.0
21/11:00am 15.8 13.8 11.6 76 2.3 NW 13 17 7 9 1015.6 1015.6 0.0
21/10:30am 16.7 15.0 12.5 76 2.3 NNW 13 17 7 9 1015.4 1015.4 0.0
21/10:00am 16.0 13.4 12.0 77 2.2 NW 17 22 9 12 1015.7 1015.7 0.0
21/09:30am 16.4 14.1 11.6 73 2.6 NNW 15 22 8 12 1015.1 1015.1 0.0
21/09:00am 15.5 13.5 11.5 77 2.2 NNE 13 20 7 11 1015.2 1015.2 0.4
21/08:30am 15.3 13.5 12.1 81 1.7 NNE 13 20 7 11 1014.9 1014.9 0.4
21/08:25am 15.2 14.2 12.3 83 1.6 NE 9 15 5 8 1014.9 1014.9 0.4
21/08:00am 14.5 13.5 12.4 87 1.1 E 9 13 5 7 1014.8 1014.8 0.4
21/07:30am 14.5 13.7 12.9 90 0.9 ENE 9 13 5 7 1014.5 1014.5 0.4
21/07:00am 13.1 11.9 11.7 91 0.7 ENE 9 13 5 7 1014.3 1014.3 0.4
21/06:30am 12.1 10.6 10.5 90 0.8 ENE 9 13 5 7 1014.5 1014.5 0.4
21/05:30am 13.2 13.6 11.4 89 1.0 CALM 0 0 0 0 1015.1 1015.1 0.4
21/05:00am 12.4 12.7 10.8 90 0.8 CALM 0 0 0 0 1015.6 1015.6 0.4
21/04:30am 12.4 12.7 10.8 90 0.8 CALM 0 0 0 0 1014.9 1014.9 0.4
21/04:00am 11.8 10.7 10.0 89 0.9 ENE 6 7 3 4 1014.6 1014.6 0.4
21/03:30am 11.8 10.7 9.9 88 1.0 ENE 6 7 3 4 1014.4 1014.4 0.4
21/03:00am 12.5 12.7 10.4 87 1.1 CALM 0 0 0 0 1014.5 1014.5 0.4
21/02:30am 13.0 12.9 10.7 86 1.2 WNW 2 6 1 3 1014.8 1014.8 0.4
21/02:00am 13.1 12.2 10.8 86 1.2 WNW 6 7 3 4 1015.0 1015.0 0.4
21/01:30am 12.9 11.7 10.4 85 1.3 W 7 9 4 5 1015.3 1015.3 0.4
21/01:00am 13.5 12.1 10.9 84 1.4 WSW 9 13 5 7 1015.8 1015.8 0.4
21/12:30am 13.5 12.4 10.7 83 1.5 SW 7 13 4 7 1016.0 1016.0 0.4
21/12:00am 13.6 12.1 10.4 81 1.7 WSW 9 15 5 8 1016.2 1016.3 0.4
 
Date/Time
EDT
Temp
°C
App
Temp
°C
Dew
Point
Rel
Hum
%
Delta-T
°C
Wind Press
QNH
hPa
Press
MSL
hPa
Rain
since 9 am
mm
Dir
 
Spd
km/h
Gust
km/h
Spd
kts
Gust
kts
20/11:30pm 13.6 11.6 10.0 79 1.9 WSW 11 17 6 9 1016.5 1016.5 0.4
20/11:00pm 13.7 12.1 10.3 80 1.8 WSW 9 15 5 8 1016.7 1016.7 0.4
20/10:30pm 13.9 11.6 10.5 80 1.8 WSW 13 20 7 11 1016.9 1016.9 0.4
20/10:00pm 13.7 10.2 10.3 80 1.8 SW 19 22 10 12 1016.8 1016.8 0.4
20/09:30pm 13.7 10.2 10.3 80 1.8 SW 19 22 10 12 1016.4 1016.4 0.4
20/09:00pm 13.9 10.0 10.7 81 1.7 SW 22 28 12 15 1016.3 1016.3 0.4
20/08:30pm 14.3 10.4 10.9 80 1.8 SW 22 28 12 15 1016.5 1016.5 0.4
20/08:00pm 14.5 10.2 10.7 78 2.0 SW 24 30 13 16 1016.5 1016.5 0.4
20/07:30pm 15.3 10.8 11.5 78 2.1 SW 26 32 14 17 1016.4 1016.4 0.4
20/07:00pm 16.0 11.5 11.4 74 2.5 SW 26 32 14 17 1016.3 1016.3 0.4
20/06:30pm 16.3 11.9 11.7 74 2.5 SW 26 33 14 18 1016.3 1016.3 0.4
20/05:30pm 16.0 12.3 11.6 75 2.4 SW 22 32 12 17 1016.2 1016.2 0.4
20/05:00pm 16.3 12.7 11.7 74 2.5 SW 22 35 12 19 1016.4 1016.4 0.4
20/04:30pm 16.4 12.5 12.2 76 2.3 SW 24 33 13 18 1016.4 1016.4 0.4
20/04:00pm 16.3 12.4 12.1 76 2.3 SW 24 35 13 19 1016.5 1016.5 0.4
20/03:30pm 16.0 12.3 11.6 75 2.4 WSW 22 35 12 19 1016.8 1016.8 0.4
20/03:00pm 16.5 12.7 12.3 76 2.3 SW 24 35 13 19 1016.8 1016.8 0.4
20/02:36pm 16.6 13.3 12.8 78 2.1 WSW 22 32 12 17 1016.8 1016.8 0.4
20/02:30pm 16.6 12.6 12.9 79 2.1 SW 26 33 14 18 1016.8 1016.8 0.4
20/02:11pm 15.5 11.5 11.9 79 2.0 SW 24 33 13 18 1016.8 1016.8 0.4
20/02:00pm 16.8 12.6 12.5 76 2.4 SW 26 35 14 19 1016.8 1016.8 0.4
20/01:30pm 16.7 12.9 12.3 75 2.4 SW 24 41 13 22 1016.8 1016.8 0.4
20/01:00pm 16.5 12.6 12.1 75 2.4 SW 24 37 13 20 1016.7 1016.7 0.4
20/12:30pm 16.2 12.7 12.2 77 2.2 SW 22 37 12 20 1016.7 1016.7 0.4
20/12:00pm 16.0 11.9 12.7 81 1.8 SW 26 37 14 20 1016.7 1016.7 0.4
20/11:30am 15.9 11.1 13.0 83 1.6 SW 30 43 16 23 1016.6 1016.6 0.4
20/11:00am 15.0 10.3 13.2 89 1.0 SW 30 41 16 22 1016.5 1016.5 0.4
20/10:48am 14.6 10.3 13.1 91 0.8 SW 28 41 15 22 1016.5 1016.5 0.4
20/10:30am 14.2 9.8 12.9 92 0.7 SW 28 41 15 22 1016.3 1016.3 0.4
20/10:00am 14.1 8.9 12.8 92 0.7 WSW 32 50 17 27 1016.1 1016.1 0.4
20/09:41am 14.5 10.2 13.2 92 0.7 W 28 46 15 25 1016.0 1016.0 0.0
20/09:30am 14.4 10.1 13.1 92 0.7 W 28 39 15 21 1016.1 1016.1 0.0
20/09:00am 14.0 9.2 12.9 93 0.6 W 30 46 16 25 1015.7 1015.7 0.2
20/08:30am 13.8 8.4 12.7 93 0.6 W 33 50 18 27 1015.5 1015.5 0.2
20/08:27am 13.8 8.6 12.7 93 0.6 W 32 50 17 27 1015.5 1015.5 0.2
20/08:00am 13.8 8.5 12.5 92 0.7 W 32 44 17 24 1015.2 1015.2 0.0
20/07:30am 14.0 8.7 12.4 90 0.9 W 32 50 17 27 1015.0 1015.0 0.0
20/07:27am 14.1 8.7 12.3 89 1.0 W 32 44 17 24 1015.0 1015.0 0.0
20/07:04am 13.9 8.5 12.1 89 1.0 W 32 44 17 24 1014.8 1014.8 0.0
20/07:00am 14.0 8.4 12.2 89 1.0 W 33 48 18 26 1014.8 1014.8 0.0
20/06:46am 14.3 8.9 12.2 87 1.1 W 32 46 17 25 1014.7 1014.7 0.0
20/06:36am 14.2 8.6 12.1 87 1.1 W 33 46 18 25 1014.6 1014.6 0.0
20/06:30am 14.4 8.9 12.4 88 1.1 W 33 46 18 25 1014.6 1014.6 0.0
20/06:18am 14.3 8.8 12.5 89 1.0 W 33 44 18 24 1014.5 1014.5 0.0
20/06:17am 14.4 8.9 12.6 89 1.0 W 33 46 18 25 1014.5 1014.5 0.0
20/06:00am 14.1 8.6 12.5 90 0.9 W 33 44 18 24 1014.4 1014.4 0.0
20/05:49am 13.9 8.9 12.3 90 0.9 W 30 41 16 22 1014.4 1014.4 0.0
20/05:37am 13.6 8.2 12.2 91 0.8 W 32 41 17 22 1014.4 1014.4 0.0
20/05:30am 13.6 9.0 12.2 91 0.8 W 28 37 15 20 1014.3 1014.3 0.0
20/05:00am 13.6 8.5 12.0 90 0.9 W 30 44 16 24 1014.4 1014.4 0.0
20/04:43am 13.8 7.6 11.5 86 1.2 W 35 50 19 27 1014.3 1014.3 0.0
20/04:30am 14.3 8.1 11.3 82 1.6 W 35 50 19 27 1014.2 1014.2 0.0
20/04:00am 14.4 7.8 11.2 81 1.7 W 37 48 20 26 1014.2 1014.2 0.0
20/03:30am 14.4 8.8 11.4 82 1.6 W 32 46 17 25 1014.3 1014.3 0.0
20/03:05am 14.2 8.9 11.4 83 1.5 W 30 48 16 26 1014.6 1014.6 0.0
20/03:00am 13.9 9.7 11.2 84 1.4 W 24 43 13 23 1014.7 1014.7 0.0
20/02:30am 14.3 8.7 11.5 83 1.5 W 32 44 17 24 1015.1 1015.1 0.0
20/02:00am 14.3 8.4 11.3 82 1.6 WNW 33 43 18 23 1015.3 1015.3 0.0
20/01:30am 14.4 7.8 11.2 81 1.7 WNW 37 52 20 28 1015.7 1015.7 0.0
20/01:00am 14.2 8.2 10.8 80 1.8 WNW 33 44 18 24 1015.9 1015.9 0.0
20/12:30am 14.2 8.1 10.6 79 1.9 W 33 44 18 24 1016.2 1016.2 0.0
20/12:00am 14.2 9.1 10.6 79 1.9 W 28 39 15 21 1016.5 1016.5 0.0
 
Date/Time
EDT
Temp
°C
App
Temp
°C
Dew
Point
Rel
Hum
%
Delta-T
°C
Wind Press
QNH
hPa
Press
MSL
hPa
Rain
since 9 am
mm
Dir
 
Spd
km/h
Gust
km/h
Spd
kts
Gust
kts
19/11:30pm 14.2 9.0 10.4 78 2.0 W 28 39 15 21 1016.8 1016.8 0.0
19/11:00pm 14.1 9.6 9.9 76 2.2 W 24 35 13 19 1017.0 1017.0 0.0
19/10:30pm 14.0 9.0 9.6 75 2.3 W 26 37 14 20 1017.3 1017.3 0.0
19/10:00pm 13.8 8.4 9.5 75 2.2 W 28 39 15 21 1017.3 1017.3 0.0
19/09:30pm 13.6 8.9 9.3 75 2.2 W 24 39 13 21 1017.3 1017.3 0.0
19/09:00pm 13.8 8.9 8.4 70 2.7 W 24 39 13 21 1017.2 1017.2 0.0
19/08:30pm 13.8 9.3 8.6 71 2.6 W 22 37 12 20 1017.2 1017.2 0.0
19/08:00pm 13.7 9.7 9.2 74 2.3 W 20 28 11 15 1017.1 1017.1 0.0
19/07:30pm 13.5 9.5 9.2 75 2.2 WSW 20 37 11 20 1016.8 1016.8 0.0
19/07:00pm 13.0 7.4 8.9 76 2.1 SW 28 37 15 20 1016.7 1016.7 0.0
19/06:30pm 12.8 8.3 8.5 75 2.1 W 22 33 12 18 1016.4 1016.4 0.0
19/06:08pm 13.2 7.4 7.9 70 2.6 W 28 50 15 27 1016.4 1016.4 0.0
19/06:00pm 13.8 8.9 8.4 70 2.7 W 24 35 13 19 1016.3 1016.3 0.0
19/05:30pm 13.8 8.8 8.0 68 2.9 W 24 35 13 19 1016.4 1016.4 0.0
19/05:00pm 14.1 9.3 7.4 64 3.3 WSW 22 35 12 19 1016.3 1016.3 0.0
19/04:30pm 15.0 10.1 6.8 58 4.0 WSW 22 39 12 21 1016.4 1016.4 0.0
19/04:00pm 14.5 9.9 6.6 59 3.8 W 20 33 11 18 1016.5 1016.5 0.0
19/03:30pm 14.7 9.8 7.0 60 3.8 WSW 22 37 12 20 1016.3 1016.3 0.0
19/03:00pm 14.8 9.9 6.9 59 3.9 WSW 22 41 12 22 1016.4 1016.4 0.0
19/02:30pm 14.6 10.0 6.7 59 3.9 WSW 20 35 11 19 1016.2 1016.2 0.0
19/02:00pm 14.5 10.0 7.1 61 3.6 WSW 20 33 11 18 1016.2 1016.2 0.0
19/01:30pm 14.5 9.9 6.6 59 3.8 W 20 32 11 17 1016.2 1016.2 0.0
19/01:00pm 14.6 10.3 6.9 60 3.8 WSW 19 32 10 17 1016.1 1016.1 0.0
19/12:30pm 14.5 9.5 6.6 59 3.8 WSW 22 35 12 19 1015.9 1015.9 0.0
19/12:00pm 13.9 7.8 6.5 61 3.6 SW 28 39 15 21 1015.8 1015.8 0.0
19/11:30am 14.1 8.7 6.2 59 3.8 SW 24 37 13 20 1015.8 1015.8 0.0
19/11:00am 13.8 8.3 5.9 59 3.8 SW 24 37 13 20 1015.7 1015.7 0.0
19/10:30am 14.5 7.6 6.6 59 3.8 SW 32 39 17 21 1015.6 1015.6 0.0
19/10:00am 14.1 7.2 6.5 60 3.7 SW 32 41 17 22 1015.3 1015.3 0.0
19/09:30am 13.7 7.0 5.8 59 3.8 SW 30 39 16 21 1015.2 1015.2 0.0
19/09:00am 13.5 5.9 5.7 59 3.7 SW 35 43 19 23 1015.1 1015.1 4.4
19/08:30am 13.2 5.9 5.4 59 3.7 SW 33 41 18 22 1014.7 1014.7 4.4
19/08:00am 12.8 4.9 6.2 64 3.1 SW 37 48 20 26 1014.3 1014.3 4.4
19/07:30am 12.6 4.7 4.6 58 3.7 SW 35 44 19 24 1013.8 1013.8 4.4
19/07:00am 12.3 3.8 5.2 62 3.3 SW 39 48 21 26 1013.4 1013.4 4.4
19/06:30am 12.2 4.0 6.5 68 2.7 SW 39 48 21 26 1013.1 1013.0 4.4
19/06:00am 12.0 4.1 6.1 67 2.8 SW 37 48 20 26 1012.8 1012.7 4.4
19/05:30am 11.8 4.0 6.5 70 2.5 SW 37 50 20 27 1012.4 1012.3 4.4
19/05:00am 11.7 4.6 8.2 79 1.7 SW 35 48 19 26 1012.0 1011.9 4.4
19/04:36am 12.1 4.1 7.6 74 2.2 SW 39 63 21 34 1011.4 1011.3 4.2
19/04:30am 12.2 4.5 7.3 72 2.4 SW 37 46 20 25 1011.5 1011.4 4.2
19/04:00am 12.0 3.8 6.7 70 2.5 SW 39 50 21 27 1011.4 1011.3 4.2
19/03:30am 12.3 3.4 7.0 70 2.6 SW 43 52 23 28 1011.1 1011.0 4.2
19/03:00am 12.3 3.8 7.0 70 2.6 SW 41 50 22 27 1010.9 1010.8 4.2
19/02:30am 12.4 5.2 7.7 73 2.3 WSW 35 50 19 27 1010.7 1010.6 4.2
19/02:00am 12.7 6.7 7.0 68 2.8 WSW 28 50 15 27 1010.6 1010.5 4.2
19/01:31am 12.8 5.4 6.8 67 2.9 SW 35 54 19 29 1010.6 1010.5 4.2
19/01:30am 12.8 5.1 7.0 68 2.8 SW 37 54 20 29 1010.6 1010.5 4.2
19/01:04am 12.6 5.9 7.3 70 2.6 SW 32 50 17 27 1010.5 1010.4 4.2
19/01:00am 12.6 5.9 7.3 70 2.6 SW 32 44 17 24 1010.5 1010.4 4.2
19/12:30am 12.7 5.9 6.7 67 2.9 SW 32 50 17 27 1010.3 1010.2 4.2
19/12:00am 13.0 7.0 7.2 68 2.8 WSW 28 46 15 25 1010.1 1010.0 4.2
 
Date/Time
EDT
Temp
°C
App
Temp
°C
Dew
Point
Rel
Hum
%
Delta-T
°C
Wind Press
QNH
hPa
Press
MSL
hPa
Rain
since 9 am
mm
Dir
 
Spd
km/h
Gust
km/h
Spd
kts
Gust
kts
18/11:30pm 13.0 6.4 7.9 71 2.5 WSW 32 63 17 34 1010.0 1009.9 4.2
18/11:00pm 13.3 7.4 7.3 67 2.9 WSW 28 54 15 29 1009.9 1009.8 4.2
18/10:31pm 13.5 7.7 7.9 69 2.8 WSW 28 46 15 25 1009.8 1009.7 4.2
18/10:30pm 13.5 8.1 7.9 69 2.8 WSW 26 46 14 25 1009.8 1009.7 4.2
18/10:29pm 13.5 7.6 7.7 68 2.9 WSW 28 46 15 25 1009.8 1009.7 4.2
18/10:00pm 13.3 7.9 8.0 70 2.6 WSW 26 48 14 26 1009.7 1009.6 4.2
18/09:30pm 13.1 6.6 8.0 71 2.5 SW 32 50 17 27 1009.5 1009.4 4.2
18/09:14pm 13.0 6.8 7.9 71 2.5 SW 30 50 16 27 1009.3 1009.2 4.2
18/09:00pm 12.8 6.0 7.7 71 2.5 SW 33 46 18 25 1009.2 1009.1 4.2
18/08:30pm 12.4 4.7 8.5 77 1.9 SW 39 46 21 25 1008.8 1008.7 4.2
18/08:00pm 13.1 5.5 9.2 77 2.0 SW 39 56 21 30 1008.2 1008.1 4.0
18/07:30pm 14.1 8.6 9.1 72 2.6 SW 28 50 15 27 1007.7 1007.6 4.0
18/07:16pm 14.0 8.5 9.0 72 2.5 SW 28 46 15 25 1007.5 1007.4 4.0
18/07:00pm 13.8 6.8 8.6 71 2.6 SW 35 52 19 28 1007.2 1007.1 4.0
18/06:52pm 13.8 7.9 7.6 66 3.1 WSW 28 46 15 25 1006.9 1006.8 4.0
18/06:30pm 14.5 9.3 8.9 69 2.9 WSW 26 48 14 26 1006.5 1006.4 4.0
18/06:00pm 14.9 10.6 9.5 70 2.8 WSW 22 39 12 21 1006.0 1005.9 4.0
18/05:30pm 14.2 8.7 9.0 71 2.7 WSW 28 56 15 30 1005.4 1005.4 4.0
18/05:25pm 14.8 9.5 10.0 73 2.5 WSW 28 54 15 29 1005.3 1005.3 4.0

Other Formats:

Comma delimited format used in spreadsheet applications
http://www.bom.gov.au/fwo/IDT60801/IDT60801.95954.axf

JavaScript Object Notation format (JSON) in row-major order
http://www.bom.gov.au/fwo/IDT60801/IDT60801.95954.json